sensor_id;sensor_type;location;lat;lon;timestamp;pressure;altitude;pressure_sealevel;temperature;humidity
82672;BME280;72378;52.468;13.432;2024-01-11T00:01:08;102723.78;;;-2.84;66.03
82672;BME280;72378;52.468;13.432;2024-01-11T00:03:35;102719.56;;;-2.62;64.04
82672;BME280;72378;52.468;13.432;2024-01-11T00:06:01;102715.91;;;-3.44;67.50
82672;BME280;72378;52.468;13.432;2024-01-11T00:08:29;102710.72;;;-2.89;67.47
82672;BME280;72378;52.468;13.432;2024-01-11T00:10:55;102713.56;;;-2.41;65.20
82672;BME280;72378;52.468;13.432;2024-01-11T00:13:22;102715.63;;;-2.77;66.87
82672;BME280;72378;52.468;13.432;2024-01-11T00:15:49;102701.75;;;-2.57;65.50
82672;BME280;72378;52.468;13.432;2024-01-11T00:18:15;102711.84;;;-2.42;66.68
82672;BME280;72378;52.468;13.432;2024-01-11T00:20:42;102719.97;;;-2.22;64.28
82672;BME280;72378;52.468;13.432;2024-01-11T00:23:09;102718.50;;;-2.04;63.46
82672;BME280;72378;52.468;13.432;2024-01-11T00:25:35;102716.50;;;-1.98;62.91
82672;BME280;72378;52.468;13.432;2024-01-11T00:28:01;102707.91;;;-2.04;63.26
82672;BME280;72378;52.468;13.432;2024-01-11T00:30:28;102694.72;;;-3.42;66.85
82672;BME280;72378;52.468;13.432;2024-01-11T00:32:55;102703.13;;;-3.30;68.03
82672;BME280;72378;52.468;13.432;2024-01-11T00:35:22;102689.31;;;-2.83;67.42
82672;BME280;72378;52.468;13.432;2024-01-11T00:37:48;102682.53;;;-2.64;67.12
82672;BME280;72378;52.468;13.432;2024-01-11T00:40:16;102685.78;;;-2.82;67.39
82672;BME280;72378;52.468;13.432;2024-01-11T00:42:43;102675.25;;;-3.70;69.69
82672;BME280;72378;52.468;13.432;2024-01-11T00:45:09;102677.59;;;-3.02;67.68
82672;BME280;72378;52.468;13.432;2024-01-11T00:47:35;102674.50;;;-2.88;66.92
82672;BME280;72378;52.468;13.432;2024-01-11T00:50:03;102667.53;;;-3.47;68.81
82672;BME280;72378;52.468;13.432;2024-01-11T00:52:30;102662.34;;;-3.83;70.16
82672;BME280;72378;52.468;13.432;2024-01-11T00:54:56;102650.66;;;-3.72;70.16
82672;BME280;72378;52.468;13.432;2024-01-11T00:57:23;102656.03;;;-4.08;70.76
82672;BME280;72378;52.468;13.432;2024-01-11T00:59:49;102661.66;;;-4.20;71.16
82672;BME280;72378;52.468;13.432;2024-01-11T01:02:15;102644.81;;;-4.16;70.96
82672;BME280;72378;52.468;13.432;2024-01-11T01:04:41;102645.78;;;-4.53;71.63
82672;BME280;72378;52.468;13.432;2024-01-11T01:07:10;102650.94;;;-4.47;71.64
82672;BME280;72378;52.468;13.432;2024-01-11T01:09:36;102654.28;;;-3.46;69.50
82672;BME280;72378;52.468;13.432;2024-01-11T01:12:03;102659.81;;;-2.97;66.68
82672;BME280;72378;52.468;13.432;2024-01-11T01:14:29;102622.88;;;-4.19;69.92
82672;BME280;72378;52.468;13.432;2024-01-11T01:16:56;102607.13;;;-4.22;70.31
82672;BME280;72378;52.468;13.432;2024-01-11T01:19:22;102626.13;;;-4.40;71.82
82672;BME280;72378;52.468;13.432;2024-01-11T01:21:48;102622.22;;;-4.59;71.76
82672;BME280;72378;52.468;13.432;2024-01-11T01:24:16;102621.53;;;-3.71;70.22
82672;BME280;72378;52.468;13.432;2024-01-11T01:26:42;102632.78;;;-3.95;70.07
82672;BME280;72378;52.468;13.432;2024-01-11T01:29:09;102630.28;;;-4.32;71.23
82672;BME280;72378;52.468;13.432;2024-01-11T01:31:35;102634.38;;;-4.54;71.83
82672;BME280;72378;52.468;13.432;2024-01-11T01:34:02;102635.72;;;-3.17;69.15
82672;BME280;72378;52.468;13.432;2024-01-11T01:36:29;102644.78;;;-2.96;67.41
82672;BME280;72378;52.468;13.432;2024-01-11T01:38:55;102637.50;;;-4.06;71.18
82672;BME280;72378;52.468;13.432;2024-01-11T01:41:22;102662.63;;;-3.03;68.48
82672;BME280;72378;52.468;13.432;2024-01-11T01:43:49;102655.50;;;-3.01;67.54
82672;BME280;72378;52.468;13.432;2024-01-11T01:46:20;102644.53;;;-4.05;70.77
82672;BME280;72378;52.468;13.432;2024-01-11T01:48:48;102633.25;;;-4.44;70.95
82672;BME280;72378;52.468;13.432;2024-01-11T01:51:14;102647.06;;;-4.34;71.29
82672;BME280;72378;52.468;13.432;2024-01-11T01:53:41;102633.19;;;-4.76;72.31
82672;BME280;72378;52.468;13.432;2024-01-11T01:56:08;102637.16;;;-4.60;71.86
82672;BME280;72378;52.468;13.432;2024-01-11T01:58:36;102626.53;;;-3.93;71.26
82672;BME280;72378;52.468;13.432;2024-01-11T02:01:03;102634.25;;;-3.25;69.18
82672;BME280;72378;52.468;13.432;2024-01-11T02:03:29;102655.22;;;-2.92;67.56
82672;BME280;72378;52.468;13.432;2024-01-11T02:05:56;102650.91;;;-3.23;67.16
82672;BME280;72378;52.468;13.432;2024-01-11T02:08:22;102653.19;;;-3.11;66.89
82672;BME280;72378;52.468;13.432;2024-01-11T02:10:49;102644.53;;;-3.16;67.45
82672;BME280;72378;52.468;13.432;2024-01-11T02:13:15;102649.47;;;-3.33;68.77
82672;BME280;72378;52.468;13.432;2024-01-11T02:15:43;102670.38;;;-3.55;70.35
82672;BME280;72378;52.468;13.432;2024-01-11T02:18:10;102684.13;;;-2.86;68.76
82672;BME280;72378;52.468;13.432;2024-01-11T02:20:37;102680.28;;;-2.76;67.60
82672;BME280;72378;52.468;13.432;2024-01-11T02:23:05;102680.56;;;-2.85;67.82
82672;BME280;72378;52.468;13.432;2024-01-11T02:25:35;102656.63;;;-3.37;69.55
82672;BME280;72378;52.468;13.432;2024-01-11T02:28:02;102670.66;;;-3.06;69.14
82672;BME280;72378;52.468;13.432;2024-01-11T02:30:29;102670.00;;;-3.12;69.30
82672;BME280;72378;52.468;13.432;2024-01-11T02:32:55;102666.41;;;-3.69;71.05
82672;BME280;72378;52.468;13.432;2024-01-11T02:35:23;102671.75;;;-3.42;71.39
82672;BME280;72378;52.468;13.432;2024-01-11T02:37:50;102675.97;;;-2.78;68.68
82672;BME280;72378;52.468;13.432;2024-01-11T02:40:18;102684.09;;;-3.13;69.86
82672;BME280;72378;52.468;13.432;2024-01-11T02:42:46;102678.59;;;-3.35;70.84
82672;BME280;72378;52.468;13.432;2024-01-11T02:45:13;102675.81;;;-3.90;71.87
82672;BME280;72378;52.468;13.432;2024-01-11T02:47:39;102679.22;;;-4.19;73.22
82672;BME280;72378;52.468;13.432;2024-01-11T02:50:07;102662.53;;;-4.21;73.04
82672;BME280;72378;52.468;13.432;2024-01-11T02:52:33;102649.56;;;-4.30;73.58
82672;BME280;72378;52.468;13.432;2024-01-11T02:54:59;102641.50;;;-4.24;74.29
82672;BME280;72378;52.468;13.432;2024-01-11T02:57:26;102628.59;;;-4.34;73.66
82672;BME280;72378;52.468;13.432;2024-01-11T02:59:53;102632.53;;;-4.17;73.93
82672;BME280;72378;52.468;13.432;2024-01-11T03:02:19;102640.81;;;-3.38;72.10
82672;BME280;72378;52.468;13.432;2024-01-11T03:04:46;102644.78;;;-3.53;71.68
82672;BME280;72378;52.468;13.432;2024-01-11T03:07:12;102638.97;;;-3.07;71.58
82672;BME280;72378;52.468;13.432;2024-01-11T03:09:39;102638.81;;;-3.03;71.00
82672;BME280;72378;52.468;13.432;2024-01-11T03:12:05;102644.50;;;-3.73;72.55
82672;BME280;72378;52.468;13.432;2024-01-11T03:14:32;102649.88;;;-3.47;71.50
82672;BME280;72378;52.468;13.432;2024-01-11T03:17:00;102659.19;;;-3.63;72.37
82672;BME280;72378;52.468;13.432;2024-01-11T03:19:26;102659.72;;;-3.83;73.03
82672;BME280;72378;52.468;13.432;2024-01-11T03:21:53;102658.78;;;-4.12;72.93
82672;BME280;72378;52.468;13.432;2024-01-11T03:24:19;102656.56;;;-3.95;74.75
82672;BME280;72378;52.468;13.432;2024-01-11T03:26:47;102652.81;;;-3.56;72.51
82672;BME280;72378;52.468;13.432;2024-01-11T03:29:13;102639.06;;;-4.31;75.04
82672;BME280;72378;52.468;13.432;2024-01-11T03:31:40;102644.47;;;-3.42;72.39
82672;BME280;72378;52.468;13.432;2024-01-11T03:34:09;102641.66;;;-3.98;72.69
82672;BME280;72378;52.468;13.432;2024-01-11T03:36:35;102633.72;;;-3.96;72.62
82672;BME280;72378;52.468;13.432;2024-01-11T03:39:02;102623.78;;;-3.59;71.20
82672;BME280;72378;52.468;13.432;2024-01-11T03:41:28;102624.09;;;-2.84;69.66
82672;BME280;72378;52.468;13.432;2024-01-11T03:43:55;102618.69;;;-3.65;70.34
82672;BME280;72378;52.468;13.432;2024-01-11T03:46:21;102617.63;;;-3.58;71.77
82672;BME280;72378;52.468;13.432;2024-01-11T03:48:47;102619.41;;;-3.02;69.55
82672;BME280;72378;52.468;13.432;2024-01-11T03:51:15;102597.06;;;-4.40;72.31
82672;BME280;72378;52.468;13.432;2024-01-11T03:53:41;102595.09;;;-4.32;72.98
82672;BME280;72378;52.468;13.432;2024-01-11T03:56:07;102599.78;;;-3.22;70.69
82672;BME280;72378;52.468;13.432;2024-01-11T03:58:35;102604.56;;;-3.07;69.09
82672;BME280;72378;52.468;13.432;2024-01-11T04:01:02;102596.19;;;-2.94;69.19
82672;BME280;72378;52.468;13.432;2024-01-11T04:03:28;102608.31;;;-2.87;69.75
82672;BME280;72378;52.468;13.432;2024-01-11T04:05:54;102599.47;;;-3.70;71.09
82672;BME280;72378;52.468;13.432;2024-01-11T04:08:23;102593.00;;;-3.60;72.62
82672;BME280;72378;52.468;13.432;2024-01-11T04:10:49;102594.16;;;-3.13;70.33
82672;BME280;72378;52.468;13.432;2024-01-11T04:13:15;102607.28;;;-3.09;71.83
82672;BME280;72378;52.468;13.432;2024-01-11T04:15:41;102589.56;;;-3.34;71.63
82672;BME280;72378;52.468;13.432;2024-01-11T04:18:08;102600.78;;;-3.26;72.63
82672;BME280;72378;52.468;13.432;2024-01-11T04:20:34;102591.28;;;-3.61;72.14
82672;BME280;72378;52.468;13.432;2024-01-11T04:23:00;102591.00;;;-3.81;74.04
82672;BME280;72378;52.468;13.432;2024-01-11T04:25:28;102577.16;;;-3.91;74.40
82672;BME280;72378;52.468;13.432;2024-01-11T04:27:54;102602.91;;;-3.97;75.72
82672;BME280;72378;52.468;13.432;2024-01-11T04:30:21;102598.88;;;-3.50;74.68
82672;BME280;72378;52.468;13.432;2024-01-11T04:32:47;102604.03;;;-3.75;75.72
82672;BME280;72378;52.468;13.432;2024-01-11T04:35:13;102607.78;;;-3.53;76.09
82672;BME280;72378;52.468;13.432;2024-01-11T04:37:40;102597.09;;;-3.50;76.29
82672;BME280;72378;52.468;13.432;2024-01-11T04:40:07;102596.19;;;-2.94;75.00
82672;BME280;72378;52.468;13.432;2024-01-11T04:42:35;102604.97;;;-2.92;74.94
82672;BME280;72378;52.468;13.432;2024-01-11T04:45:01;102606.00;;;-2.97;75.24
82672;BME280;72378;52.468;13.432;2024-01-11T04:47:30;102615.09;;;-2.78;75.75
82672;BME280;72378;52.468;13.432;2024-01-11T04:49:57;102606.22;;;-3.31;76.71
82672;BME280;72378;52.468;13.432;2024-01-11T04:52:23;102599.09;;;-3.58;78.37
82672;BME280;72378;52.468;13.432;2024-01-11T04:54:50;102578.78;;;-3.56;78.03
82672;BME280;72378;52.468;13.432;2024-01-11T04:57:16;102583.59;;;-3.41;78.58
82672;BME280;72378;52.468;13.432;2024-01-11T04:59:44;102588.91;;;-3.41;79.01
82672;BME280;72378;52.468;13.432;2024-01-11T05:02:10;102584.81;;;-3.51;79.20
82672;BME280;72378;52.468;13.432;2024-01-11T05:04:36;102569.34;;;-3.37;79.28
82672;BME280;72378;52.468;13.432;2024-01-11T05:07:03;102558.00;;;-3.39;79.23
82672;BME280;72378;52.468;13.432;2024-01-11T05:09:29;102556.56;;;-3.50;80.33
82672;BME280;72378;52.468;13.432;2024-01-11T05:11:56;102525.34;;;-3.12;79.78
82672;BME280;72378;52.468;13.432;2024-01-11T05:14:22;102541.47;;;-3.47;80.36
82672;BME280;72378;52.468;13.432;2024-01-11T05:16:50;102575.34;;;-2.27;78.97
82672;BME280;72378;52.468;13.432;2024-01-11T05:19:16;102583.25;;;-2.26;76.96
82672;BME280;72378;52.468;13.432;2024-01-11T05:21:43;102588.09;;;-2.63;77.75
82672;BME280;72378;52.468;13.432;2024-01-11T05:24:09;102573.78;;;-2.58;78.03
82672;BME280;72378;52.468;13.432;2024-01-11T05:26:35;102559.69;;;-2.84;79.14
82672;BME280;72378;52.468;13.432;2024-01-11T05:29:02;102576.03;;;-2.72;79.00
82672;BME280;72378;52.468;13.432;2024-01-11T05:31:30;102568.38;;;-2.30;78.12
82672;BME280;72378;52.468;13.432;2024-01-11T05:33:58;102577.53;;;-2.38;78.38
82672;BME280;72378;52.468;13.432;2024-01-11T05:36:24;102577.94;;;-2.75;79.21
82672;BME280;72378;52.468;13.432;2024-01-11T05:38:50;102581.41;;;-2.75;79.11
82672;BME280;72378;52.468;13.432;2024-01-11T05:41:17;102570.44;;;-2.89;79.61
82672;BME280;72378;52.468;13.432;2024-01-11T05:43:43;102570.41;;;-2.63;78.95
82672;BME280;72378;52.468;13.432;2024-01-11T05:46:09;102569.22;;;-2.79;79.45
82672;BME280;72378;52.468;13.432;2024-01-11T05:48:36;102558.63;;;-2.79;80.11
82672;BME280;72378;52.468;13.432;2024-01-11T05:51:04;102545.50;;;-2.82;79.71
82672;BME280;72378;52.468;13.432;2024-01-11T05:53:30;102547.22;;;-2.81;80.11
82672;BME280;72378;52.468;13.432;2024-01-11T05:56:00;102552.94;;;-2.67;80.37
82672;BME280;72378;52.468;13.432;2024-01-11T05:58:26;102540.28;;;-2.59;79.34
82672;BME280;72378;52.468;13.432;2024-01-11T06:00:53;102552.88;;;-2.40;79.36
82672;BME280;72378;52.468;13.432;2024-01-11T06:03:20;102553.91;;;-2.20;78.97
82672;BME280;72378;52.468;13.432;2024-01-11T06:05:46;102565.31;;;-1.95;77.91
82672;BME280;72378;52.468;13.432;2024-01-11T06:08:14;102564.75;;;-2.03;77.77
82672;BME280;72378;52.468;13.432;2024-01-11T06:10:40;102583.84;;;-2.42;79.03
82672;BME280;72378;52.468;13.432;2024-01-11T06:13:07;102572.69;;;-1.34;76.69
82672;BME280;72378;52.468;13.432;2024-01-11T06:15:34;102565.69;;;-1.14;75.23
82672;BME280;72378;52.468;13.432;2024-01-11T06:18:01;102559.28;;;-1.09;74.03
82672;BME280;72378;52.468;13.432;2024-01-11T06:20:27;102551.56;;;-2.04;77.59
82672;BME280;72378;52.468;13.432;2024-01-11T06:22:53;102540.59;;;-1.95;78.23
82672;BME280;72378;52.468;13.432;2024-01-11T06:25:21;102539.81;;;-1.97;78.06
82672;BME280;72378;52.468;13.432;2024-01-11T06:27:47;102548.34;;;-2.14;78.52
82672;BME280;72378;52.468;13.432;2024-01-11T06:30:14;102551.75;;;-1.86;77.87
82672;BME280;72378;52.468;13.432;2024-01-11T06:32:40;102547.28;;;-1.62;77.35
82672;BME280;72378;52.468;13.432;2024-01-11T06:35:07;102552.28;;;-0.90;75.47
82672;BME280;72378;52.468;13.432;2024-01-11T06:37:33;102549.81;;;-1.59;76.76
82672;BME280;72378;52.468;13.432;2024-01-11T06:39:59;102564.84;;;-1.15;75.80
82672;BME280;72378;52.468;13.432;2024-01-11T06:42:27;102552.03;;;-0.64;74.29
82672;BME280;72378;52.468;13.432;2024-01-11T06:44:54;102546.00;;;-0.67;74.43
82672;BME280;72378;52.468;13.432;2024-01-11T06:47:20;102537.84;;;-0.23;72.54
82672;BME280;72378;52.468;13.432;2024-01-11T06:49:46;102531.81;;;-1.30;74.83
82672;BME280;72378;52.468;13.432;2024-01-11T06:52:12;102526.91;;;-1.62;77.02
82672;BME280;72378;52.468;13.432;2024-01-11T06:54:39;102532.41;;;-1.45;76.56
82672;BME280;72378;52.468;13.432;2024-01-11T06:57:05;102536.56;;;-1.16;76.68
82672;BME280;72378;52.468;13.432;2024-01-11T06:59:33;102521.44;;;-1.14;77.46
82672;BME280;72378;52.468;13.432;2024-01-11T07:02:00;102521.13;;;-1.28;77.59
82672;BME280;72378;52.468;13.432;2024-01-11T07:04:26;102521.75;;;-1.43;77.77
82672;BME280;72378;52.468;13.432;2024-01-11T07:06:53;102521.44;;;-0.52;76.43
82672;BME280;72378;52.468;13.432;2024-01-11T07:09:19;102517.19;;;-1.18;78.14
82672;BME280;72378;52.468;13.432;2024-01-11T07:11:45;102522.38;;;-1.15;77.96
82672;BME280;72378;52.468;13.432;2024-01-11T07:14:12;102514.47;;;-1.38;77.96
82672;BME280;72378;52.468;13.432;2024-01-11T07:16:39;102515.66;;;-1.23;78.20
82672;BME280;72378;52.468;13.432;2024-01-11T07:19:06;102521.91;;;-1.04;78.07
82672;BME280;72378;52.468;13.432;2024-01-11T07:21:32;102524.66;;;-0.86;76.81
82672;BME280;72378;52.468;13.432;2024-01-11T07:23:59;102523.91;;;-0.68;76.91
82672;BME280;72378;52.468;13.432;2024-01-11T07:26:25;102517.00;;;-0.52;75.31
82672;BME280;72378;52.468;13.432;2024-01-11T07:28:52;102523.16;;;-0.31;75.21
82672;BME280;72378;52.468;13.432;2024-01-11T07:31:20;102512.19;;;-1.04;75.96
82672;BME280;72378;52.468;13.432;2024-01-11T07:33:47;102507.75;;;-1.47;78.09
82672;BME280;72378;52.468;13.432;2024-01-11T07:36:14;102514.28;;;-1.12;77.48
82672;BME280;72378;52.468;13.432;2024-01-11T07:38:40;102526.03;;;-0.56;76.06
82672;BME280;72378;52.468;13.432;2024-01-11T07:41:06;102533.63;;;-0.08;73.77
82672;BME280;72378;52.468;13.432;2024-01-11T07:43:33;102533.72;;;-0.70;74.20
82672;BME280;72378;52.468;13.432;2024-01-11T07:46:00;102527.19;;;-1.03;76.79
82672;BME280;72378;52.468;13.432;2024-01-11T07:48:27;102523.50;;;-1.20;77.11
82672;BME280;72378;52.468;13.432;2024-01-11T07:50:55;102538.28;;;-0.93;76.81
82672;BME280;72378;52.468;13.432;2024-01-11T07:53:22;102538.09;;;-0.29;75.85
82672;BME280;72378;52.468;13.432;2024-01-11T07:55:48;102534.06;;;-0.57;75.03
82672;BME280;72378;52.468;13.432;2024-01-11T07:58:14;102523.91;;;-0.68;74.53
82672;BME280;72378;52.468;13.432;2024-01-11T08:00:41;102509.66;;;-1.07;76.77
82672;BME280;72378;52.468;13.432;2024-01-11T08:03:07;102509.44;;;-0.61;76.63
82672;BME280;72378;52.468;13.432;2024-01-11T08:05:34;102505.97;;;-0.83;76.75
82672;BME280;72378;52.468;13.432;2024-01-11T08:08:02;102501.44;;;-0.81;76.64
82672;BME280;72378;52.468;13.432;2024-01-11T08:10:29;102520.84;;;-0.79;77.06
82672;BME280;72378;52.468;13.432;2024-01-11T08:12:56;102518.22;;;-0.20;75.87
82672;BME280;72378;52.468;13.432;2024-01-11T08:15:22;102505.09;;;-0.05;74.39
82672;BME280;72378;52.468;13.432;2024-01-11T08:17:49;102508.09;;;-0.31;75.33
82672;BME280;72378;52.468;13.432;2024-01-11T08:20:15;102507.38;;;-0.34;75.99
82672;BME280;72378;52.468;13.432;2024-01-11T08:22:42;102504.94;;;-0.20;75.38
82672;BME280;72378;52.468;13.432;2024-01-11T08:25:09;102500.91;;;-0.49;76.00
82672;BME280;72378;52.468;13.432;2024-01-11T08:27:36;102507.31;;;-0.53;76.88
82672;BME280;72378;52.468;13.432;2024-01-11T08:30:03;102518.72;;;-0.71;76.03
82672;BME280;72378;52.468;13.432;2024-01-11T08:32:30;102516.91;;;-0.50;76.98
82672;BME280;72378;52.468;13.432;2024-01-11T08:35:03;102518.84;;;0.05;75.26
82672;BME280;72378;52.468;13.432;2024-01-11T08:37:30;102508.63;;;-0.43;75.52
82672;BME280;72378;52.468;13.432;2024-01-11T08:39:56;102497.69;;;0.02;76.16
82672;BME280;72378;52.468;13.432;2024-01-11T08:42:24;102494.25;;;-0.39;74.95
82672;BME280;72378;52.468;13.432;2024-01-11T08:44:50;102496.72;;;-0.34;76.69
82672;BME280;72378;52.468;13.432;2024-01-11T08:47:17;102495.69;;;-0.12;75.67
82672;BME280;72378;52.468;13.432;2024-01-11T08:49:43;102501.84;;;-0.50;76.72
82672;BME280;72378;52.468;13.432;2024-01-11T08:52:10;102505.84;;;0.18;75.78
82672;BME280;72378;52.468;13.432;2024-01-11T08:54:36;102504.19;;;-0.04;75.91
82672;BME280;72378;52.468;13.432;2024-01-11T08:57:03;102498.00;;;-0.04;75.79
82672;BME280;72378;52.468;13.432;2024-01-11T08:59:31;102491.56;;;-0.37;76.04
82672;BME280;72378;52.468;13.432;2024-01-11T09:01:58;102487.94;;;0.21;75.68
82672;BME280;72378;52.468;13.432;2024-01-11T09:04:24;102488.22;;;-0.62;77.88
82672;BME280;72378;52.468;13.432;2024-01-11T09:06:53;102485.56;;;-0.04;75.90
82672;BME280;72378;52.468;13.432;2024-01-11T09:09:21;102463.28;;;-0.58;78.60
82672;BME280;72378;52.468;13.432;2024-01-11T09:11:47;102451.31;;;-0.48;78.48
82672;BME280;72378;52.468;13.432;2024-01-11T09:14:14;102461.56;;;-0.02;77.73
82672;BME280;72378;52.468;13.432;2024-01-11T09:16:42;102466.16;;;0.32;76.40
82672;BME280;72378;52.468;13.432;2024-01-11T09:19:09;102470.84;;;0.08;75.70
82672;BME280;72378;52.468;13.432;2024-01-11T09:21:36;102457.31;;;0.13;76.73
82672;BME280;72378;52.468;13.432;2024-01-11T09:24:02;102457.16;;;-0.22;77.59
82672;BME280;72378;52.468;13.432;2024-01-11T09:26:29;102464.28;;;0.34;77.15
82672;BME280;72378;52.468;13.432;2024-01-11T09:28:55;102473.75;;;0.39;75.47
82672;BME280;72378;52.468;13.432;2024-01-11T09:31:22;102478.50;;;0.33;75.64
82672;BME280;72378;52.468;13.432;2024-01-11T09:33:50;102478.03;;;0.79;74.24
82672;BME280;72378;52.468;13.432;2024-01-11T09:36:18;102476.88;;;0.49;74.29
82672;BME280;72378;52.468;13.432;2024-01-11T09:38:44;102463.19;;;0.38;75.54
82672;BME280;72378;52.468;13.432;2024-01-11T09:41:12;102466.88;;;0.35;74.97
82672;BME280;72378;52.468;13.432;2024-01-11T09:43:40;102470.31;;;0.37;76.53
82672;BME280;72378;52.468;13.432;2024-01-11T09:46:08;102462.53;;;1.38;72.49
82672;BME280;72378;52.468;13.432;2024-01-11T09:48:38;102470.31;;;0.37;75.49
82672;BME280;72378;52.468;13.432;2024-01-11T09:51:09;102469.75;;;0.31;76.69
82672;BME280;72378;52.468;13.432;2024-01-11T09:53:37;102475.97;;;0.67;75.89
82672;BME280;72378;52.468;13.432;2024-01-11T09:56:07;102482.34;;;0.63;74.37
82672;BME280;72378;52.468;13.432;2024-01-11T09:58:34;102486.88;;;0.25;76.12
82672;BME280;72378;52.468;13.432;2024-01-11T10:01:02;102495.59;;;0.46;75.88
82672;BME280;72378;52.468;13.432;2024-01-11T10:03:29;102504.13;;;1.06;74.23
82672;BME280;72378;52.468;13.432;2024-01-11T10:05:57;102510.75;;;0.98;74.31
82672;BME280;72378;52.468;13.432;2024-01-11T10:08:26;102499.22;;;0.45;74.80
82672;BME280;72378;52.468;13.432;2024-01-11T10:10:53;102486.47;;;-0.23;77.11
82672;BME280;72378;52.468;13.432;2024-01-11T10:13:26;102483.41;;;0.42;76.20
82672;BME280;72378;52.468;13.432;2024-01-11T10:16:04;102483.34;;;0.43;76.47
82672;BME280;72378;52.468;13.432;2024-01-11T10:18:31;102480.38;;;1.02;74.63
82672;BME280;72378;52.468;13.432;2024-01-11T10:20:57;102468.06;;;1.34;72.40
82672;BME280;72378;52.468;13.432;2024-01-11T10:23:25;102473.84;;;0.73;73.49
82672;BME280;72378;52.468;13.432;2024-01-11T10:25:54;102479.50;;;0.67;74.92
82672;BME280;72378;52.468;13.432;2024-01-11T10:28:20;102462.41;;;0.36;76.03
82672;BME280;72378;52.468;13.432;2024-01-11T10:30:47;102461.41;;;0.74;74.49
82672;BME280;72378;52.468;13.432;2024-01-11T10:33:13;102448.19;;;-0.19;77.21
82672;BME280;72378;52.468;13.432;2024-01-11T10:35:40;102455.47;;;-0.04;77.71
82672;BME280;72378;52.468;13.432;2024-01-11T10:38:09;102444.09;;;-0.08;76.87
82672;BME280;72378;52.468;13.432;2024-01-11T10:40:37;102448.63;;;0.09;76.36
82672;BME280;72378;52.468;13.432;2024-01-11T10:43:05;102444.41;;;0.41;75.90
82672;BME280;72378;52.468;13.432;2024-01-11T10:45:36;102450.06;;;-0.03;77.21
82672;BME280;72378;52.468;13.432;2024-01-11T10:48:06;102453.06;;;0.63;75.62
82672;BME280;72378;52.468;13.432;2024-01-11T10:50:36;102454.72;;;0.30;75.38
82672;BME280;72378;52.468;13.432;2024-01-11T10:53:04;102468.06;;;1.16;74.02
82672;BME280;72378;52.468;13.432;2024-01-11T10:55:37;102469.44;;;0.91;72.66
82672;BME280;72378;52.468;13.432;2024-01-11T10:58:06;102459.78;;;0.53;75.03
82672;BME280;72378;52.468;13.432;2024-01-11T11:00:34;102457.19;;;0.87;74.52
82672;BME280;72378;52.468;13.432;2024-01-11T11:03:02;102454.22;;;0.76;73.55
82672;BME280;72378;52.468;13.432;2024-01-11T11:05:32;102453.16;;;0.61;74.81
82672;BME280;72378;52.468;13.432;2024-01-11T11:08:01;102446.72;;;0.48;74.82
82672;BME280;72378;52.468;13.432;2024-01-11T11:10:27;102443.06;;;0.32;74.96
82672;BME280;72378;52.468;13.432;2024-01-11T11:12:56;102443.03;;;-0.22;77.13
82672;BME280;72378;52.468;13.432;2024-01-11T11:15:26;102434.56;;;0.43;76.24
82672;BME280;72378;52.468;13.432;2024-01-11T11:17:53;102449.13;;;0.88;75.09
82672;BME280;72378;52.468;13.432;2024-01-11T11:20:20;102461.19;;;0.24;75.45
82672;BME280;72378;52.468;13.432;2024-01-11T11:22:48;102453.03;;;0.29;75.72
82672;BME280;72378;52.468;13.432;2024-01-11T11:25:29;102469.47;;;0.37;75.88
82672;BME280;72378;52.468;13.432;2024-01-11T11:27:57;102459.22;;;0.46;75.68
82672;BME280;72378;52.468;13.432;2024-01-11T11:30:24;102457.44;;;0.82;75.22
82672;BME280;72378;52.468;13.432;2024-01-11T11:32:50;102450.72;;;0.21;76.29
82672;BME280;72378;52.468;13.432;2024-01-11T11:35:17;102467.69;;;0.54;75.30
82672;BME280;72378;52.468;13.432;2024-01-11T11:37:43;102478.97;;;0.95;74.43
82672;BME280;72378;52.468;13.432;2024-01-11T11:40:10;102481.78;;;0.56;76.62
82672;BME280;72378;52.468;13.432;2024-01-11T11:42:37;102483.03;;;0.31;76.77
82672;BME280;72378;52.468;13.432;2024-01-11T11:45:06;102480.75;;;0.23;77.17
82672;BME280;72378;52.468;13.432;2024-01-11T11:47:36;102479.94;;;0.40;75.35
82672;BME280;72378;52.468;13.432;2024-01-11T11:50:04;102471.16;;;0.56;76.23
82672;BME280;72378;52.468;13.432;2024-01-11T11:52:33;102469.00;;;0.81;76.27
82672;BME280;72378;52.468;13.432;2024-01-11T11:55:00;102462.84;;;1.15;74.15
82672;BME280;72378;52.468;13.432;2024-01-11T11:57:27;102467.22;;;0.99;75.46
82672;BME280;72378;52.468;13.432;2024-01-11T11:59:54;102470.63;;;1.52;73.40
82672;BME280;72378;52.468;13.432;2024-01-11T12:02:25;102473.28;;;0.67;75.03
82672;BME280;72378;52.468;13.432;2024-01-11T12:04:52;102463.63;;;1.17;75.06
82672;BME280;72378;52.468;13.432;2024-01-11T12:07:19;102462.50;;;0.87;75.79
82672;BME280;72378;52.468;13.432;2024-01-11T12:09:46;102445.72;;;2.01;71.98
82672;BME280;72378;52.468;13.432;2024-01-11T12:12:13;102441.06;;;0.90;75.30
82672;BME280;72378;52.468;13.432;2024-01-11T12:14:40;102442.34;;;1.50;74.88
82672;BME280;72378;52.468;13.432;2024-01-11T12:17:07;102442.31;;;1.17;75.44
82672;BME280;72378;52.468;13.432;2024-01-11T12:19:35;102450.19;;;0.84;76.76
82672;BME280;72378;52.468;13.432;2024-01-11T12:22:02;102452.16;;;0.98;76.21
82672;BME280;72378;52.468;13.432;2024-01-11T12:24:29;102447.63;;;1.17;76.08
82672;BME280;72378;52.468;13.432;2024-01-11T12:26:56;102439.94;;;1.78;74.12
82672;BME280;72378;52.468;13.432;2024-01-11T12:29:23;102442.78;;;1.90;73.34
82672;BME280;72378;52.468;13.432;2024-01-11T12:31:49;102449.75;;;1.93;75.26
82672;BME280;72378;52.468;13.432;2024-01-11T12:34:16;102451.63;;;1.75;74.56
82672;BME280;72378;52.468;13.432;2024-01-11T12:36:44;102443.63;;;1.43;76.71
82672;BME280;72378;52.468;13.432;2024-01-11T12:39:11;102437.38;;;2.07;74.25
82672;BME280;72378;52.468;13.432;2024-01-11T12:41:39;102422.06;;;2.26;73.39